createdAt,value
2017-09-01T00:00:51.083Z,45.60
2017-09-01T00:03:18.533Z,45.60
2017-09-01T00:05:45.983Z,45.60
2017-09-01T00:08:13.435Z,45.70
2017-09-01T00:10:40.894Z,45.70
2017-09-01T00:13:08.339Z,45.60
2017-09-01T00:15:35.806Z,45.60
2017-09-01T00:18:03.268Z,45.70
2017-09-01T00:20:30.721Z,45.70
2017-09-01T00:22:58.176Z,45.70
2017-09-01T00:25:25.632Z,45.70
2017-09-01T00:27:53.083Z,45.80
2017-09-01T00:30:20.530Z,45.70
2017-09-01T00:32:47.986Z,45.80
2017-09-01T00:35:15.441Z,45.90
2017-09-01T00:37:42.897Z,45.80
2017-09-01T00:40:10.361Z,45.80
2017-09-01T00:42:37.815Z,45.70
2017-09-01T00:45:05.269Z,46.40
2017-09-01T00:47:32.721Z,45.80
2017-09-01T00:50:00.949Z,45.80
2017-09-01T00:52:28.410Z,45.80
2017-09-01T00:54:55.854Z,45.90
2017-09-01T00:57:23.298Z,45.80
2017-09-01T00:59:50.766Z,46.00
2017-09-01T01:02:18.214Z,45.80
2017-09-01T01:04:45.667Z,45.90
2017-09-01T01:07:13.105Z,46.00
2017-09-01T01:09:40.561Z,45.80
2017-09-01T01:12:08.020Z,45.90
2017-09-01T01:14:35.491Z,45.90
2017-09-01T01:17:02.933Z,45.90
2017-09-01T01:19:30.387Z,46.00
2017-09-01T01:21:57.864Z,45.90
2017-09-01T01:24:25.320Z,45.90
2017-09-01T01:26:52.769Z,45.90
2017-09-01T01:29:20.235Z,45.90
2017-09-01T01:31:47.706Z,45.90
2017-09-01T01:34:15.170Z,45.90
2017-09-01T01:36:42.630Z,46.00
2017-09-01T01:39:10.086Z,46.00
2017-09-01T01:41:37.578Z,46.00
2017-09-01T01:44:05.032Z,46.00
2017-09-01T01:46:32.491Z,46.10
2017-09-01T01:48:59.930Z,46.00
2017-09-01T01:51:27.397Z,46.10
2017-09-01T01:53:54.839Z,46.10
2017-09-01T01:56:22.286Z,46.00
2017-09-01T01:58:49.765Z,46.10
2017-09-01T02:01:17.217Z,46.00
2017-09-01T02:03:44.666Z,46.10
2017-09-01T02:06:12.897Z,46.20
2017-09-01T02:08:40.361Z,46.00
2017-09-01T02:11:07.830Z,46.10
2017-09-01T02:13:35.279Z,46.20
2017-09-01T02:16:02.754Z,46.10
2017-09-01T02:18:30.194Z,46.20
2017-09-01T02:20:57.647Z,46.10
2017-09-01T02:23:25.120Z,46.80
2017-09-01T02:25:52.579Z,46.20
2017-09-01T02:28:20.031Z,46.20
2017-09-01T02:30:47.475Z,46.10
2017-09-01T02:33:14.931Z,46.20
2017-09-01T02:35:42.391Z,46.20
2017-09-01T02:38:09.856Z,46.20
2017-09-01T02:40:37.312Z,46.20
2017-09-01T02:43:04.770Z,46.30
2017-09-01T02:45:32.217Z,46.30
2017-09-01T02:47:59.676Z,46.30
2017-09-01T02:50:27.131Z,46.30
2017-09-01T02:52:54.594Z,46.20
2017-09-01T02:55:22.046Z,46.30
2017-09-01T02:57:49.502Z,46.30
2017-09-01T03:00:16.962Z,46.30
2017-09-01T03:02:45.177Z,46.30
2017-09-01T03:05:12.634Z,46.30
2017-09-01T03:07:40.858Z,46.40
2017-09-01T03:10:08.311Z,46.40
2017-09-01T03:12:35.774Z,46.40
2017-09-01T03:15:03.269Z,46.40
2017-09-01T03:17:30.710Z,46.30
2017-09-01T03:19:58.183Z,46.40
2017-09-01T03:22:25.657Z,46.40
2017-09-01T03:24:53.106Z,46.50
2017-09-01T03:27:20.558Z,46.50
2017-09-01T03:29:48.011Z,46.60
2017-09-01T03:32:15.482Z,46.60
2017-09-01T03:34:42.932Z,46.50
2017-09-01T03:37:10.400Z,46.60
2017-09-01T03:39:37.889Z,46.50
2017-09-01T03:42:05.382Z,46.50
2017-09-01T03:44:32.816Z,46.50
2017-09-01T03:47:00.282Z,46.60
2017-09-01T03:49:27.725Z,46.50
2017-09-01T03:51:55.177Z,46.60
2017-09-01T03:54:22.638Z,46.50
2017-09-01T03:56:50.098Z,46.60
2017-09-01T03:59:17.560Z,46.50
2017-09-01T04:01:45.017Z,46.60
2017-09-01T04:04:12.457Z,46.50
2017-09-01T04:06:39.915Z,46.60
2017-09-01T04:09:07.378Z,46.50
2017-09-01T04:11:34.829Z,46.60
2017-09-01T04:14:02.297Z,46.60
2017-09-01T04:16:29.745Z,46.60
2017-09-01T04:18:57.223Z,46.60
2017-09-01T04:21:24.670Z,46.60
2017-09-01T04:23:52.250Z,46.70
2017-09-01T04:26:19.702Z,46.60
2017-09-01T04:28:47.186Z,46.60
2017-09-01T04:31:14.652Z,46.50
2017-09-01T04:33:42.161Z,46.60
2017-09-01T04:36:09.614Z,46.60
2017-09-01T04:38:37.074Z,46.60
2017-09-01T04:41:04.518Z,46.60
2017-09-01T04:43:31.968Z,46.60
2017-09-01T04:45:59.418Z,46.60
2017-09-01T04:48:26.874Z,46.60
2017-09-01T04:50:54.330Z,46.60
2017-09-01T04:53:21.773Z,46.60
2017-09-01T04:55:49.276Z,46.70
2017-09-01T04:58:16.752Z,46.60
2017-09-01T05:00:44.214Z,46.60
2017-09-01T05:03:11.678Z,46.70
2017-09-01T05:05:39.154Z,46.60
2017-09-01T05:08:06.638Z,46.60
2017-09-01T05:10:34.143Z,46.60
2017-09-01T05:13:01.622Z,46.60
2017-09-01T05:15:29.082Z,46.60
2017-09-01T05:17:56.549Z,46.60
2017-09-01T05:20:24.018Z,46.60
2017-09-01T05:22:51.473Z,46.50
2017-09-01T05:25:18.930Z,46.50
2017-09-01T05:27:46.392Z,46.60
2017-09-01T05:30:13.834Z,46.60
2017-09-01T05:32:41.295Z,46.60
2017-09-01T05:35:08.776Z,46.60
2017-09-01T05:37:36.262Z,46.60
2017-09-01T05:40:03.759Z,46.60
2017-09-01T05:42:31.222Z,46.60
2017-09-01T05:44:58.732Z,46.50
2017-09-01T05:47:26.198Z,46.40
2017-09-01T05:49:53.665Z,46.40
2017-09-01T05:52:21.114Z,46.30
2017-09-01T05:54:48.591Z,46.20
2017-09-01T05:57:16.055Z,46.20
2017-09-01T05:59:43.545Z,46.10
2017-09-01T06:02:10.995Z,46.00
2017-09-01T06:04:38.502Z,46.00
2017-09-01T06:07:05.994Z,46.00
2017-09-01T06:09:33.452Z,46.00
2017-09-01T06:12:00.961Z,47.80
2017-09-01T06:14:28.426Z,52.40
2017-09-01T06:16:55.885Z,51.30
2017-09-01T06:19:23.385Z,49.70
2017-09-01T06:21:50.857Z,48.90
2017-09-01T06:24:18.303Z,48.10
2017-09-01T06:26:46.525Z,47.10
2017-09-01T06:29:13.986Z,47.00
2017-09-01T06:31:41.442Z,46.70
2017-09-01T06:34:08.914Z,46.50
2017-09-01T06:36:36.386Z,46.10
2017-09-01T06:39:03.854Z,45.80
2017-09-01T06:41:31.298Z,45.80
2017-09-01T06:43:58.826Z,45.70
2017-09-01T06:46:26.290Z,45.80
2017-09-01T06:48:53.809Z,46.10
2017-09-01T06:51:21.329Z,46.00
2017-09-01T06:53:48.790Z,46.20
2017-09-01T06:56:16.269Z,46.00
2017-09-01T06:58:43.711Z,46.00
2017-09-01T07:01:11.191Z,46.00
2017-09-01T07:03:39.694Z,46.00
2017-09-01T07:06:07.150Z,45.90
2017-09-01T07:08:34.629Z,46.10
2017-09-01T07:11:02.104Z,46.40
2017-09-01T07:13:29.597Z,46.80
2017-09-01T07:15:57.055Z,47.20
2017-09-01T07:18:24.505Z,47.50
2017-09-01T07:20:52.031Z,47.20
2017-09-01T07:23:20.593Z,47.00
2017-09-01T07:25:48.076Z,47.00
2017-09-01T07:28:15.558Z,46.80
2017-09-01T07:30:43.029Z,47.20
2017-09-01T07:33:10.479Z,47.10
2017-09-01T07:35:38.095Z,48.40
2017-09-01T07:38:05.614Z,49.80
2017-09-01T07:40:33.071Z,49.40
2017-09-01T07:43:00.533Z,50.20
2017-09-01T07:45:27.990Z,49.60
2017-09-01T07:47:55.482Z,49.00
2017-09-01T07:50:23.066Z,48.70
2017-09-01T07:52:50.539Z,48.60
2017-09-01T07:55:17.994Z,48.50
2017-09-01T07:57:45.462Z,48.20
2017-09-01T08:00:12.913Z,47.90
2017-09-01T08:02:40.394Z,47.40
2017-09-01T08:05:07.871Z,47.30
2017-09-01T08:07:35.325Z,47.90
2017-09-01T08:10:02.818Z,46.80
2017-09-01T08:12:30.272Z,46.70
2017-09-01T08:14:57.730Z,46.30
2017-09-01T08:17:25.202Z,46.00
2017-09-01T08:19:52.689Z,45.60
2017-09-01T08:22:20.168Z,45.30
2017-09-01T08:24:47.667Z,44.90
2017-09-01T08:27:15.128Z,44.60
2017-09-01T08:29:42.624Z,44.40
2017-09-01T08:32:10.078Z,44.00
2017-09-01T08:34:37.545Z,43.50
2017-09-01T08:37:05.006Z,41.90
2017-09-01T08:39:32.586Z,40.90
2017-09-01T08:42:00.046Z,41.20
2017-09-01T08:44:27.525Z,41.90
2017-09-01T08:46:54.975Z,41.40
2017-09-01T08:49:22.501Z,41.70
2017-09-01T08:51:50.723Z,41.70
2017-09-01T08:54:18.186Z,42.20
2017-09-01T08:56:45.651Z,41.60
2017-09-01T08:59:13.114Z,41.40
2017-09-01T09:01:40.604Z,41.00
2017-09-01T09:04:08.051Z,41.20
2017-09-01T09:06:35.548Z,40.80
2017-09-01T09:09:03.013Z,40.80
2017-09-01T09:11:30.588Z,41.70
2017-09-01T09:13:58.114Z,40.30
2017-09-01T09:16:25.606Z,40.10
2017-09-01T09:18:53.867Z,39.80
2017-09-01T09:21:21.324Z,39.80
2017-09-01T09:23:48.806Z,39.80
2017-09-01T09:26:16.282Z,39.00
2017-09-01T09:28:43.802Z,36.80
2017-09-01T09:31:11.286Z,37.00
2017-09-01T09:33:38.749Z,36.00
2017-09-01T09:36:06.223Z,36.90
2017-09-01T09:38:33.690Z,37.50
2017-09-01T09:41:01.144Z,37.70
2017-09-01T09:43:28.606Z,36.30
2017-09-01T09:45:56.069Z,35.60
2017-09-01T09:48:23.518Z,36.00
2017-09-01T09:50:50.978Z,35.40
2017-09-01T09:53:18.431Z,35.20
2017-09-01T09:55:45.905Z,34.20
2017-09-01T09:58:13.392Z,34.10
2017-09-01T10:00:40.864Z,34.30
2017-09-01T10:03:08.358Z,34.40
2017-09-01T10:05:36.654Z,34.60
2017-09-01T10:08:04.111Z,35.20
2017-09-01T10:10:31.570Z,34.90
2017-09-01T10:12:59.013Z,35.10
2017-09-01T10:15:26.463Z,35.30
2017-09-01T10:17:53.926Z,35.30
2017-09-01T10:20:21.426Z,32.80
2017-09-01T10:22:48.890Z,34.30
2017-09-01T10:25:16.333Z,33.50
2017-09-01T10:27:43.792Z,33.40
2017-09-01T10:30:11.227Z,33.00
2017-09-01T10:32:38.724Z,33.30
2017-09-01T10:35:06.165Z,33.00
2017-09-01T10:37:33.635Z,33.50
2017-09-01T10:40:01.112Z,35.00
2017-09-01T10:42:28.585Z,37.10
2017-09-01T10:44:56.025Z,36.00
2017-09-01T10:47:35.330Z,35.90
2017-09-01T10:50:14.606Z,35.60
2017-09-01T10:52:54.681Z,35.10
2017-09-01T10:55:34.064Z,35.10
2017-09-01T10:58:10.337Z,35.00
2017-09-01T11:00:37.782Z,34.30
2017-09-01T11:03:05.257Z,34.30
2017-09-01T11:05:32.694Z,35.40
2017-09-01T11:08:00.152Z,35.40
2017-09-01T11:10:27.608Z,35.40
2017-09-01T11:12:55.065Z,33.70
2017-09-01T11:15:22.523Z,33.10
2017-09-01T11:17:49.978Z,33.00
2017-09-01T11:20:23.142Z,33.00
2017-09-01T11:25:49.249Z,32.00
2017-09-01T11:28:16.724Z,30.90
2017-09-01T11:30:44.204Z,30.10
2017-09-01T11:33:11.661Z,30.80
2017-09-01T11:35:39.126Z,29.50
2017-09-01T11:38:06.578Z,30.20
2017-09-01T11:40:34.034Z,30.00
2017-09-01T11:43:01.511Z,29.10
2017-09-01T11:45:28.980Z,30.10
2017-09-01T11:47:56.449Z,30.40
2017-09-01T11:50:23.890Z,30.70
2017-09-01T11:52:51.423Z,30.60
2017-09-01T11:55:18.866Z,30.10
2017-09-01T11:57:46.318Z,30.30
2017-09-01T12:00:13.759Z,32.10
2017-09-01T12:02:41.211Z,31.60
2017-09-01T12:05:09.426Z,31.30
2017-09-01T12:07:36.882Z,31.30
2017-09-01T12:10:04.360Z,32.40
2017-09-01T12:12:31.821Z,33.30
2017-09-01T12:14:59.270Z,32.20
2017-09-01T12:17:26.723Z,32.70
2017-09-01T12:19:54.185Z,32.60
2017-09-01T12:22:21.653Z,32.60
2017-09-01T12:24:49.125Z,32.30
2017-09-01T12:27:16.585Z,34.10
2017-09-01T12:29:44.049Z,33.90
2017-09-01T12:32:11.505Z,33.50
2017-09-01T12:34:38.958Z,33.80
2017-09-01T12:37:06.428Z,32.80
2017-09-01T12:39:34.673Z,34.20
2017-09-01T12:42:02.136Z,34.10
2017-09-01T12:44:29.603Z,33.10
2017-09-01T12:46:57.050Z,32.40
2017-09-01T12:49:24.537Z,32.50
2017-09-01T12:51:51.992Z,33.40
2017-09-01T12:54:19.444Z,34.10
2017-09-01T12:56:46.923Z,34.20
2017-09-01T12:59:14.375Z,34.90
2017-09-01T13:01:41.832Z,34.20
2017-09-01T13:04:10.079Z,36.40
2017-09-01T13:06:37.546Z,36.30
2017-09-01T13:09:04.987Z,37.20
2017-09-01T13:11:32.467Z,37.60
2017-09-01T13:13:59.918Z,38.20
2017-09-01T13:16:27.393Z,38.90
2017-09-01T13:18:54.862Z,38.90
2017-09-01T13:21:22.305Z,38.90
2017-09-01T13:23:49.746Z,39.60
2017-09-01T13:26:17.194Z,39.10
2017-09-01T13:28:45.418Z,40.20
2017-09-01T13:31:12.874Z,40.20
2017-09-01T13:33:40.325Z,39.80
2017-09-01T13:36:07.769Z,39.00
2017-09-01T13:38:35.255Z,39.30
2017-09-01T13:41:02.710Z,39.80
2017-09-01T13:43:30.261Z,39.00
2017-09-01T13:45:57.750Z,39.00
2017-09-01T13:48:25.249Z,39.00
2017-09-01T13:50:53.484Z,38.30
2017-09-01T13:53:20.945Z,38.20
2017-09-01T13:55:48.423Z,37.80
2017-09-01T13:58:15.891Z,38.20
2017-09-01T14:00:43.351Z,39.80
2017-09-01T14:03:10.815Z,39.80
2017-09-01T14:05:38.267Z,40.30
2017-09-01T14:08:05.804Z,40.50
2017-09-01T14:10:33.246Z,40.20
2017-09-01T14:13:00.729Z,39.50
2017-09-01T14:15:28.186Z,38.80
2017-09-01T14:17:55.654Z,38.30
2017-09-01T14:20:23.141Z,37.70
2017-09-01T14:22:50.601Z,37.90
2017-09-01T14:25:18.049Z,38.30
2017-09-01T14:27:45.505Z,38.80
2017-09-01T14:30:12.958Z,40.40
2017-09-01T14:32:40.418Z,39.40
2017-09-01T14:35:07.870Z,38.50
2017-09-01T14:37:36.279Z,38.90
2017-09-01T14:40:03.738Z,38.60
2017-09-01T14:42:31.202Z,38.90
2017-09-01T14:44:58.658Z,38.90
2017-09-01T14:47:26.131Z,39.30
2017-09-01T14:49:53.586Z,39.00
2017-09-01T14:52:21.050Z,38.70
2017-09-01T14:54:48.508Z,37.80
2017-09-01T14:57:15.986Z,37.70
2017-09-01T14:59:43.434Z,38.00
2017-09-01T15:02:10.884Z,36.90
2017-09-01T15:04:38.334Z,37.00
2017-09-01T15:07:05.782Z,36.20
2017-09-01T15:09:33.257Z,35.80
2017-09-01T15:12:00.718Z,36.40
2017-09-01T15:14:28.197Z,37.10
2017-09-01T15:16:55.681Z,37.10
2017-09-01T15:19:23.138Z,37.80
2017-09-01T15:21:50.581Z,37.50
2017-09-01T15:24:18.029Z,38.20
2017-09-01T15:26:45.490Z,38.50
2017-09-01T15:29:12.954Z,38.30
2017-09-01T15:31:40.396Z,38.10
2017-09-01T15:34:07.872Z,37.90
2017-09-01T15:36:35.322Z,37.80
2017-09-01T15:39:02.765Z,37.50
2017-09-01T15:41:30.222Z,37.40
2017-09-01T15:43:57.677Z,37.10
2017-09-01T15:46:25.138Z,37.30
2017-09-01T15:48:52.591Z,37.40
2017-09-01T15:51:20.046Z,37.10
2017-09-01T15:53:47.490Z,37.50
2017-09-01T15:56:14.934Z,37.60
2017-09-01T15:58:42.378Z,37.40
2017-09-01T16:01:09.843Z,37.70
2017-09-01T16:03:37.310Z,37.70
2017-09-01T16:06:04.791Z,37.80
2017-09-01T16:08:32.236Z,37.90
2017-09-01T16:10:59.693Z,37.80
2017-09-01T16:13:27.149Z,38.00
2017-09-01T16:15:54.611Z,38.10
2017-09-01T16:18:22.086Z,38.10
2017-09-01T16:20:49.542Z,38.50
2017-09-01T16:23:16.996Z,38.90
2017-09-01T16:25:44.456Z,38.80
2017-09-01T16:28:11.936Z,39.00
2017-09-01T16:30:39.378Z,39.40
2017-09-01T16:33:06.834Z,39.80
2017-09-01T16:35:34.278Z,39.80
2017-09-01T16:38:01.763Z,39.80
2017-09-01T16:40:30.985Z,39.90
2017-09-01T16:42:58.438Z,39.80
2017-09-01T16:45:25.882Z,39.80
2017-09-01T16:47:53.368Z,39.90
2017-09-01T16:50:20.823Z,39.70
2017-09-01T16:52:48.298Z,39.70
2017-09-01T16:55:15.745Z,39.70
2017-09-01T16:57:43.187Z,39.90
2017-09-01T17:00:10.667Z,40.00
2017-09-01T17:02:38.138Z,40.20
2017-09-01T17:05:05.618Z,40.20
2017-09-01T17:07:33.073Z,40.10
2017-09-01T17:10:00.537Z,40.40
2017-09-01T17:12:28.006Z,40.40
2017-09-01T17:14:55.454Z,40.40
2017-09-01T17:17:22.910Z,40.40
2017-09-01T17:19:50.361Z,40.60
2017-09-01T17:22:17.826Z,40.60
2017-09-01T17:24:45.286Z,40.60
2017-09-01T17:27:12.753Z,40.60
2017-09-01T17:29:40.193Z,40.60
2017-09-01T17:32:07.665Z,40.70
2017-09-01T17:34:35.104Z,40.60
2017-09-01T17:37:02.573Z,40.70
2017-09-01T17:39:30.025Z,40.80
2017-09-01T17:41:57.477Z,40.80
2017-09-01T17:44:24.935Z,40.80
2017-09-01T17:46:52.390Z,40.90
2017-09-01T17:49:19.846Z,41.00
2017-09-01T17:51:47.301Z,41.20
2017-09-01T17:54:14.745Z,41.30
2017-09-01T17:56:42.209Z,41.30
2017-09-01T18:01:43.550Z,41.40
2017-09-01T18:04:11.022Z,41.40
2017-09-01T18:06:38.491Z,41.50
2017-09-01T18:09:05.959Z,41.70
2017-09-01T18:11:33.402Z,41.70
2017-09-01T18:14:00.874Z,41.80
2017-09-01T18:16:28.328Z,41.90
2017-09-01T18:18:55.949Z,41.60
2017-09-01T18:21:23.405Z,41.60
2017-09-01T18:23:50.854Z,41.40
2017-09-01T18:26:18.345Z,41.20
2017-09-01T18:28:45.821Z,41.10
2017-09-01T18:31:13.277Z,41.00
2017-09-01T18:33:40.760Z,41.00
2017-09-01T18:36:08.193Z,40.80
2017-09-01T18:38:35.658Z,40.70
2017-09-01T18:41:03.098Z,40.90
2017-09-01T18:43:30.557Z,41.00
2017-09-01T18:45:58.001Z,41.10
2017-09-01T18:48:25.465Z,41.00
2017-09-01T18:50:52.915Z,40.90
2017-09-01T18:53:20.374Z,40.80
2017-09-01T18:55:47.839Z,40.90
2017-09-01T18:58:15.309Z,41.00
2017-09-01T19:00:42.806Z,41.00
2017-09-01T19:03:10.281Z,41.00
2017-09-01T19:05:37.753Z,40.90
2017-09-01T19:08:05.210Z,40.90
2017-09-01T19:10:32.677Z,40.90
2017-09-01T19:13:00.134Z,40.90
2017-09-01T19:15:27.594Z,40.90
2017-09-01T19:17:55.043Z,40.90
2017-09-01T19:20:22.503Z,40.90
2017-09-01T19:22:49.976Z,40.80
2017-09-01T19:25:17.469Z,41.00
2017-09-01T19:27:44.931Z,41.00
2017-09-01T19:30:12.394Z,41.00
2017-09-01T19:32:39.879Z,40.80
2017-09-01T19:35:07.330Z,40.90
2017-09-01T19:37:34.813Z,41.10
2017-09-01T19:40:02.275Z,41.20
2017-09-01T19:42:29.735Z,41.20
2017-09-01T19:44:57.190Z,41.10
2017-09-01T19:47:24.665Z,41.20
2017-09-01T19:49:52.123Z,41.30
2017-09-01T19:52:19.589Z,41.50
2017-09-01T19:54:47.035Z,41.60
2017-09-01T19:57:14.527Z,41.70
2017-09-01T19:59:41.978Z,41.80
2017-09-01T20:02:09.468Z,42.00
2017-09-01T20:04:36.938Z,42.10
2017-09-01T20:07:04.407Z,42.20
2017-09-01T20:09:31.878Z,42.20
2017-09-01T20:11:59.324Z,42.20
2017-09-01T20:14:26.809Z,42.20
2017-09-01T20:16:54.280Z,42.20
2017-09-01T20:19:21.742Z,42.30
2017-09-01T20:21:49.208Z,42.40
2017-09-01T20:24:16.685Z,42.40
2017-09-01T20:26:44.137Z,42.40
2017-09-01T20:29:11.600Z,42.60
2017-09-01T20:31:39.042Z,42.60
2017-09-01T20:34:06.521Z,43.10
2017-09-01T20:36:33.975Z,43.40
2017-09-01T20:39:01.447Z,43.70
2017-09-01T20:41:28.899Z,43.90
2017-09-01T20:43:56.376Z,44.20
2017-09-01T20:46:23.925Z,44.10
2017-09-01T20:48:51.402Z,44.20
2017-09-01T20:51:18.861Z,44.40
2017-09-01T20:53:46.332Z,44.50
2017-09-01T20:56:13.821Z,44.60
2017-09-01T20:58:41.278Z,44.60
2017-09-01T21:01:08.738Z,44.60
2017-09-01T21:03:36.654Z,44.70
2017-09-01T21:06:04.149Z,44.80
2017-09-01T21:08:31.615Z,45.00
2017-09-01T21:10:59.072Z,44.90
2017-09-01T21:13:26.531Z,45.00
2017-09-01T21:15:54.009Z,45.00
2017-09-01T21:18:21.467Z,45.10
2017-09-01T21:20:48.926Z,45.00
2017-09-01T21:23:16.376Z,45.20
2017-09-01T21:25:43.865Z,45.30
2017-09-01T21:28:11.330Z,45.20
2017-09-01T21:30:38.802Z,45.30
2017-09-01T21:33:06.270Z,45.20
2017-09-01T21:35:33.741Z,45.30
2017-09-01T21:38:01.217Z,45.10
2017-09-01T21:40:28.666Z,45.10
2017-09-01T21:42:56.129Z,45.20
2017-09-01T21:45:23.593Z,45.20
2017-09-01T21:47:51.048Z,45.20
2017-09-01T21:50:18.499Z,45.20
2017-09-01T21:52:45.976Z,45.30
2017-09-01T21:55:13.418Z,45.30
2017-09-01T21:57:40.904Z,45.30
2017-09-01T22:00:08.380Z,45.30
2017-09-01T22:02:35.866Z,45.30
2017-09-01T22:05:03.363Z,45.40
2017-09-01T22:07:30.819Z,45.30
2017-09-01T22:09:58.291Z,45.40
2017-09-01T22:12:25.742Z,45.40
2017-09-01T22:14:53.215Z,45.40
2017-09-01T22:17:20.671Z,45.50
2017-09-01T22:19:48.134Z,45.50
2017-09-01T22:22:16.371Z,45.60
2017-09-01T22:24:43.855Z,45.60
2017-09-01T22:27:11.314Z,45.60
2017-09-01T22:29:38.825Z,45.60
2017-09-01T22:32:06.319Z,45.70
2017-09-01T22:34:33.802Z,45.70
2017-09-01T22:37:01.250Z,45.80
2017-09-01T22:39:29.521Z,46.00
2017-09-01T22:41:56.967Z,46.00
2017-09-01T22:44:24.449Z,46.10
2017-09-01T22:46:52.698Z,46.20
2017-09-01T22:49:20.145Z,46.10
2017-09-01T22:51:47.618Z,46.30
2017-09-01T22:54:15.076Z,46.30
2017-09-01T22:56:42.559Z,46.30
2017-09-01T22:59:10.009Z,46.40
2017-09-01T23:01:37.474Z,46.40
2017-09-01T23:04:04.982Z,46.40
2017-09-01T23:06:32.438Z,46.40
2017-09-01T23:08:59.895Z,46.40
2017-09-01T23:11:27.362Z,46.40
2017-09-01T23:13:54.844Z,46.60
2017-09-01T23:16:22.301Z,46.60
2017-09-01T23:18:49.769Z,46.70
2017-09-01T23:21:17.246Z,46.70
2017-09-01T23:23:44.690Z,46.80
2017-09-01T23:26:12.920Z,46.90
2017-09-01T23:28:40.425Z,46.90
2017-09-01T23:31:08.649Z,47.00
2017-09-01T23:33:36.108Z,46.90
2017-09-01T23:36:03.581Z,46.90
2017-09-01T23:38:31.036Z,47.00
2017-09-01T23:40:58.503Z,47.00
2017-09-01T23:43:26.021Z,47.10
2017-09-01T23:45:53.473Z,47.00
2017-09-01T23:48:20.957Z,47.10
2017-09-01T23:50:48.422Z,47.10
2017-09-01T23:53:15.874Z,47.20
2017-09-01T23:55:43.361Z,47.20
2017-09-01T23:58:10.823Z,47.20
